createdAt,value
2019-03-18T00:00:30.760Z,4.44
2019-03-18T00:01:03.734Z,4.44
2019-03-18T00:01:36.998Z,4.37
2019-03-18T00:02:10.196Z,4.37
2019-03-18T00:02:43.159Z,4.31
2019-03-18T00:03:16.101Z,4.31
2019-03-18T00:03:49.253Z,4.25
2019-03-18T00:04:28.073Z,4.31
2019-03-18T00:05:01.125Z,4.25
2019-03-18T00:05:33.996Z,4.25
2019-03-18T00:06:06.808Z,4.25
2019-03-18T00:06:39.700Z,4.19
2019-03-18T00:07:12.616Z,4.19
2019-03-18T00:07:45.617Z,4.19
2019-03-18T00:08:18.550Z,4.12
2019-03-18T00:08:51.564Z,4.12
2019-03-18T00:09:24.580Z,4.12
2019-03-18T00:09:57.358Z,4.12
2019-03-18T00:10:31.660Z,4.06
2019-03-18T00:11:04.644Z,4.06
2019-03-18T00:11:39.272Z,4.12
2019-03-18T00:12:12.274Z,4.12
2019-03-18T00:12:46.410Z,4.12
2019-03-18T00:13:19.386Z,4.12
2019-03-18T00:13:52.368Z,4.12
2019-03-18T00:14:25.269Z,4.12
2019-03-18T00:15:01.535Z,4.12
2019-03-18T00:15:33.056Z,4.12
2019-03-18T00:16:06.140Z,4.12
2019-03-18T00:16:39.234Z,4.12
2019-03-18T00:17:12.178Z,4.12
2019-03-18T00:17:44.982Z,4.06
2019-03-18T00:18:17.810Z,4.06
2019-03-18T00:18:50.811Z,4.12
2019-03-18T00:19:23.812Z,4.12
2019-03-18T00:19:56.615Z,4.12
2019-03-18T00:20:29.680Z,4.12
2019-03-18T00:21:02.666Z,4.06
2019-03-18T00:21:35.576Z,4.06
2019-03-18T00:22:08.715Z,4.06
2019-03-18T00:22:41.747Z,4.06
2019-03-18T00:23:14.778Z,4.06
2019-03-18T00:23:47.752Z,4.06
2019-03-18T00:24:20.666Z,4.06
2019-03-18T00:24:53.716Z,4.00
2019-03-18T00:25:26.488Z,4.00
2019-03-18T00:26:00.992Z,4.00
2019-03-18T00:26:34.019Z,3.94
2019-03-18T00:27:07.049Z,3.94
2019-03-18T00:27:40.152Z,3.94
2019-03-18T00:28:13.344Z,3.94
2019-03-18T00:28:46.224Z,4.00
2019-03-18T00:29:20.046Z,4.00
2019-03-18T00:29:52.868Z,4.00
2019-03-18T00:30:25.798Z,4.06
2019-03-18T00:30:58.772Z,4.06
2019-03-18T00:31:31.860Z,4.06
2019-03-18T00:32:04.965Z,4.06
2019-03-18T00:32:37.972Z,4.06
2019-03-18T00:33:10.880Z,4.06
2019-03-18T00:33:44.256Z,4.06
2019-03-18T00:34:17.160Z,4.00
2019-03-18T00:34:50.259Z,4.00
2019-03-18T00:35:23.214Z,4.00
2019-03-18T00:35:56.362Z,3.94
2019-03-18T00:36:29.280Z,3.94
2019-03-18T00:37:02.408Z,3.94
2019-03-18T00:37:35.480Z,3.94
2019-03-18T00:38:08.535Z,3.94
2019-03-18T00:38:41.529Z,3.94
2019-03-18T00:39:14.562Z,3.94
2019-03-18T00:39:47.570Z,3.87
2019-03-18T00:40:20.612Z,3.87
2019-03-18T00:40:53.501Z,3.87
2019-03-18T00:41:26.492Z,3.87
2019-03-18T00:41:59.505Z,3.87
2019-03-18T00:42:32.474Z,3.87
2019-03-18T00:43:06.715Z,3.87
2019-03-18T00:43:39.654Z,3.87
2019-03-18T00:44:12.642Z,3.94
2019-03-18T00:44:46.735Z,3.94
2019-03-18T00:45:19.756Z,3.87
2019-03-18T00:45:52.653Z,3.87
2019-03-18T00:46:25.500Z,3.87
2019-03-18T00:46:58.525Z,3.87
2019-03-18T00:47:31.507Z,3.87
2019-03-18T00:48:04.402Z,3.87
2019-03-18T00:48:37.419Z,3.87
2019-03-18T00:49:10.294Z,3.87
2019-03-18T00:49:43.232Z,3.87
2019-03-18T00:50:16.375Z,3.87
2019-03-18T00:50:49.164Z,3.87
2019-03-18T00:51:23.012Z,3.87
2019-03-18T00:51:56.284Z,3.81
2019-03-18T00:52:29.061Z,3.81
2019-03-18T00:53:01.931Z,3.81
2019-03-18T00:53:34.738Z,3.87
2019-03-18T00:54:07.556Z,3.87
2019-03-18T00:54:40.640Z,3.87
2019-03-18T00:55:13.764Z,3.87
2019-03-18T00:55:46.742Z,3.87
2019-03-18T00:56:21.029Z,3.87
2019-03-18T00:56:55.156Z,3.87
2019-03-18T00:57:28.076Z,3.94
2019-03-18T00:58:00.978Z,3.94
2019-03-18T00:58:34.072Z,3.94
2019-03-18T00:59:07.179Z,3.94
2019-03-18T00:59:40.176Z,4.00
2019-03-18T01:00:13.288Z,3.94
2019-03-18T01:00:49.007Z,4.00
2019-03-18T01:01:21.796Z,4.00
2019-03-18T01:01:54.902Z,4.00
2019-03-18T01:02:27.960Z,4.00
2019-03-18T01:03:00.906Z,4.00
2019-03-18T01:03:33.898Z,4.00
2019-03-18T01:04:07.828Z,3.94
2019-03-18T01:04:44.162Z,3.94
2019-03-18T01:05:17.230Z,3.94
2019-03-18T01:05:50.194Z,3.94
2019-03-18T01:06:23.280Z,3.94
2019-03-18T01:06:56.224Z,3.94
2019-03-18T01:07:29.278Z,3.94
2019-03-18T01:08:02.165Z,3.87
2019-03-18T01:08:35.147Z,3.87
2019-03-18T01:09:08.572Z,3.87
2019-03-18T01:09:42.950Z,3.87
2019-03-18T01:10:16.045Z,3.87
2019-03-18T01:10:49.138Z,3.94
2019-03-18T01:11:22.262Z,3.94
2019-03-18T01:11:55.342Z,4.00
2019-03-18T01:12:28.342Z,4.00
2019-03-18T01:13:01.296Z,4.06
2019-03-18T01:13:34.300Z,4.12
2019-03-18T01:14:07.327Z,4.12
2019-03-18T01:14:40.274Z,4.12
2019-03-18T01:15:27.280Z,4.12
2019-03-18T01:15:50.452Z,4.19
2019-03-18T01:16:23.806Z,4.19
2019-03-18T01:16:56.824Z,4.19
2019-03-18T01:17:29.782Z,4.19
2019-03-18T01:18:02.833Z,4.19
2019-03-18T01:18:35.792Z,4.19
2019-03-18T01:19:08.933Z,4.19
2019-03-18T01:19:41.957Z,4.25
2019-03-18T01:20:15.335Z,4.25
2019-03-18T01:20:48.309Z,4.25
2019-03-18T01:21:21.519Z,4.25
2019-03-18T01:21:54.613Z,4.19
2019-03-18T01:22:27.595Z,4.25
2019-03-18T01:23:00.690Z,4.25
2019-03-18T01:23:33.842Z,4.25
2019-03-18T01:24:06.802Z,4.25
2019-03-18T01:24:39.819Z,4.25
2019-03-18T01:25:15.949Z,4.25
2019-03-18T01:25:49.154Z,4.25
2019-03-18T01:26:22.153Z,4.25
2019-03-18T01:26:55.142Z,4.25
2019-03-18T01:27:28.279Z,4.25
2019-03-18T01:28:02.421Z,4.25
2019-03-18T01:28:35.270Z,4.25
2019-03-18T01:29:08.232Z,4.31
2019-03-18T01:29:41.175Z,4.31
2019-03-18T01:30:15.376Z,4.25
2019-03-18T01:30:48.306Z,4.25
2019-03-18T01:31:21.296Z,4.25
2019-03-18T01:31:54.222Z,4.25
2019-03-18T01:32:27.284Z,4.25
2019-03-18T01:33:01.024Z,4.25
2019-03-18T01:33:34.144Z,4.25
2019-03-18T01:34:07.035Z,4.25
2019-03-18T01:34:40.035Z,4.25
2019-03-18T01:35:13.099Z,4.19
2019-03-18T01:35:46.164Z,4.19
2019-03-18T01:36:19.050Z,4.19
2019-03-18T01:36:52.006Z,4.12
2019-03-18T01:37:25.009Z,4.12
2019-03-18T01:37:58.001Z,4.12
2019-03-18T01:38:31.409Z,4.12
2019-03-18T01:39:06.352Z,4.06
2019-03-18T01:39:39.395Z,4.06
2019-03-18T01:40:12.665Z,4.00
2019-03-18T01:40:45.647Z,4.00
2019-03-18T01:41:18.969Z,4.00
2019-03-18T01:41:51.802Z,4.00
2019-03-18T01:42:24.878Z,3.94
2019-03-18T01:42:59.147Z,3.94
2019-03-18T01:43:32.220Z,3.94
2019-03-18T01:44:05.288Z,3.94
2019-03-18T01:44:38.118Z,3.94
2019-03-18T01:45:11.618Z,3.94
2019-03-18T01:45:44.551Z,4.00
2019-03-18T01:46:17.492Z,4.00
2019-03-18T01:46:50.570Z,4.00
2019-03-18T01:47:23.620Z,4.00
2019-03-18T01:47:56.685Z,4.00
2019-03-18T01:48:29.684Z,4.00
2019-03-18T01:49:02.736Z,4.00
2019-03-18T01:49:35.683Z,4.00
2019-03-18T01:50:09.523Z,4.06
2019-03-18T01:50:42.389Z,4.06
2019-03-18T01:51:15.502Z,4.12
2019-03-18T01:51:48.399Z,4.12
2019-03-18T01:52:21.472Z,4.19
2019-03-18T01:52:54.508Z,4.19
2019-03-18T01:53:27.332Z,4.25
2019-03-18T01:54:00.241Z,4.25
2019-03-18T01:54:34.757Z,4.31
2019-03-18T01:55:07.760Z,4.31
2019-03-18T01:55:40.754Z,4.37
2019-03-18T01:56:13.791Z,4.44
2019-03-18T01:56:46.712Z,4.50
2019-03-18T01:57:19.836Z,4.50
2019-03-18T01:57:52.810Z,4.50
2019-03-18T01:58:25.800Z,4.50
2019-03-18T01:58:58.830Z,4.56
2019-03-18T01:59:31.731Z,4.62
2019-03-18T02:00:05.373Z,4.69
2019-03-18T02:00:38.572Z,4.75
2019-03-18T02:01:11.510Z,4.75
2019-03-18T02:01:44.494Z,4.75
2019-03-18T02:02:17.595Z,4.81
2019-03-18T02:02:51.904Z,4.81
2019-03-18T02:03:25.308Z,4.87
2019-03-18T02:03:58.098Z,4.87
2019-03-18T02:04:31.129Z,4.87
2019-03-18T02:05:04.556Z,4.94
2019-03-18T02:05:37.524Z,4.94
2019-03-18T02:06:10.537Z,4.94
2019-03-18T02:06:43.418Z,5.00
2019-03-18T02:07:16.299Z,4.94
2019-03-18T02:07:49.100Z,4.94
2019-03-18T02:08:21.990Z,4.94
2019-03-18T02:08:54.894Z,4.94
2019-03-18T02:09:27.795Z,4.87
2019-03-18T02:10:00.612Z,4.87
2019-03-18T02:10:33.538Z,4.87
2019-03-18T02:11:06.544Z,4.81
2019-03-18T02:11:39.318Z,4.75
2019-03-18T02:12:12.153Z,4.69
2019-03-18T02:12:45.239Z,4.62
2019-03-18T02:13:18.152Z,4.56
2019-03-18T02:13:51.085Z,4.56
2019-03-18T02:14:24.119Z,4.50
2019-03-18T02:14:57.030Z,4.44
2019-03-18T02:15:29.985Z,4.37
2019-03-18T02:16:02.980Z,4.37
2019-03-18T02:16:35.920Z,4.31
2019-03-18T02:17:08.944Z,4.31
2019-03-18T02:17:42.441Z,4.31
2019-03-18T02:18:15.229Z,4.31
2019-03-18T02:18:48.308Z,4.25
2019-03-18T02:19:21.307Z,4.19
2019-03-18T02:19:54.558Z,4.19
2019-03-18T02:20:28.594Z,4.12
2019-03-18T02:21:01.733Z,4.12
2019-03-18T02:21:34.845Z,4.12
2019-03-18T02:22:07.907Z,4.12
2019-03-18T02:22:41.052Z,4.06
2019-03-18T02:23:14.120Z,4.06
2019-03-18T02:23:47.870Z,4.06
2019-03-18T02:24:20.724Z,4.12
2019-03-18T02:24:53.703Z,4.12
2019-03-18T02:25:26.612Z,4.12
2019-03-18T02:25:59.680Z,4.19
2019-03-18T02:26:32.964Z,4.25
2019-03-18T02:27:06.042Z,4.25
2019-03-18T02:27:39.218Z,4.25
2019-03-18T02:28:12.412Z,4.25
2019-03-18T02:28:47.396Z,4.25
2019-03-18T02:29:20.155Z,4.25
2019-03-18T02:29:53.120Z,4.25
2019-03-18T02:30:26.059Z,4.31
2019-03-18T02:30:58.906Z,4.37
2019-03-18T02:31:32.029Z,4.50
2019-03-18T02:32:05.078Z,4.56
2019-03-18T02:32:38.238Z,4.56
2019-03-18T02:33:12.037Z,4.56
2019-03-18T02:33:45.039Z,4.56
2019-03-18T02:34:17.879Z,4.56
2019-03-18T02:34:50.847Z,4.56
2019-03-18T02:35:23.888Z,4.56
2019-03-18T02:35:56.980Z,4.50
2019-03-18T02:36:30.081Z,4.50
2019-03-18T02:37:03.131Z,4.50
2019-03-18T02:37:36.090Z,4.56
2019-03-18T02:38:09.292Z,4.56
2019-03-18T02:38:42.338Z,4.50
2019-03-18T02:39:15.166Z,4.50
2019-03-18T02:39:48.186Z,4.56
2019-03-18T02:40:22.255Z,4.50
2019-03-18T02:40:55.265Z,4.56
2019-03-18T02:41:28.202Z,4.56
2019-03-18T02:42:01.270Z,4.56
2019-03-18T02:42:34.338Z,4.56
2019-03-18T02:43:07.193Z,4.62
2019-03-18T02:43:40.155Z,4.62
2019-03-18T02:44:13.051Z,4.69
2019-03-18T02:44:45.904Z,4.62
2019-03-18T02:45:19.022Z,4.62
2019-03-18T02:45:52.081Z,4.56
2019-03-18T02:46:26.625Z,4.50
2019-03-18T02:46:59.722Z,4.37
2019-03-18T02:47:32.700Z,4.19
2019-03-18T02:48:05.721Z,4.06
2019-03-18T02:48:38.742Z,3.87
2019-03-18T02:49:11.586Z,3.75
2019-03-18T02:49:44.566Z,3.62
2019-03-18T02:50:17.666Z,3.50
2019-03-18T02:50:50.688Z,3.37
2019-03-18T02:51:23.529Z,3.31
2019-03-18T02:51:56.451Z,3.25
2019-03-18T02:52:29.374Z,3.25
2019-03-18T02:53:02.193Z,3.19
2019-03-18T02:53:35.061Z,3.19
2019-03-18T02:54:08.032Z,3.12
2019-03-18T02:54:41.021Z,3.12
2019-03-18T02:55:15.130Z,3.12
2019-03-18T02:55:48.136Z,3.12
2019-03-18T02:56:20.973Z,3.12
2019-03-18T02:56:53.934Z,3.12
2019-03-18T02:57:26.948Z,3.12
2019-03-18T02:58:00.035Z,3.12
2019-03-18T02:58:33.178Z,3.12
2019-03-18T02:59:07.184Z,3.12
2019-03-18T02:59:40.131Z,3.12
2019-03-18T03:00:13.359Z,3.12
2019-03-18T03:00:46.236Z,3.12
2019-03-18T03:01:20.527Z,3.12
2019-03-18T03:01:53.512Z,3.12
2019-03-18T03:02:26.509Z,3.12
2019-03-18T03:02:59.628Z,3.12
2019-03-18T03:03:36.735Z,3.12
2019-03-18T03:04:08.666Z,3.12
2019-03-18T03:04:41.460Z,3.12
2019-03-18T03:05:14.656Z,3.12
2019-03-18T03:05:47.634Z,3.12
2019-03-18T03:06:20.668Z,3.12
2019-03-18T03:06:53.655Z,3.19
2019-03-18T03:07:26.685Z,3.19
2019-03-18T03:07:59.585Z,3.12
2019-03-18T03:08:32.681Z,3.12
2019-03-18T03:09:06.751Z,3.12
2019-03-18T03:09:40.719Z,3.12
2019-03-18T03:10:14.354Z,3.12
2019-03-18T03:10:47.427Z,3.12
2019-03-18T03:11:20.528Z,3.12
2019-03-18T03:11:53.634Z,3.12
2019-03-18T03:12:26.594Z,3.19
2019-03-18T03:12:59.654Z,3.25
2019-03-18T03:13:32.618Z,3.25
2019-03-18T03:14:07.197Z,3.25
2019-03-18T03:14:40.208Z,3.25
2019-03-18T03:15:14.554Z,3.31
2019-03-18T03:15:47.862Z,3.31
2019-03-18T03:16:26.829Z,3.31
2019-03-18T03:16:56.496Z,3.37
2019-03-18T03:17:29.423Z,3.44
2019-03-18T03:18:02.467Z,3.44
2019-03-18T03:18:35.470Z,3.44
2019-03-18T03:19:08.845Z,3.44
2019-03-18T03:19:41.787Z,3.50
2019-03-18T03:20:14.871Z,3.56
2019-03-18T03:20:47.950Z,3.56
2019-03-18T03:21:21.028Z,3.62
2019-03-18T03:21:54.086Z,3.62
2019-03-18T03:22:27.026Z,3.69
2019-03-18T03:22:59.956Z,3.69
2019-03-18T03:23:33.026Z,3.69
2019-03-18T03:24:05.962Z,3.69
2019-03-18T03:24:39.060Z,3.69
2019-03-18T03:25:12.330Z,3.69
2019-03-18T03:25:45.299Z,3.69
2019-03-18T03:26:18.437Z,3.69
2019-03-18T03:26:51.517Z,3.62
2019-03-18T03:27:24.439Z,3.62
2019-03-18T03:27:58.986Z,3.69
2019-03-18T03:28:31.950Z,3.69
2019-03-18T03:29:05.045Z,3.75
2019-03-18T03:29:37.988Z,3.81
2019-03-18T03:30:12.359Z,3.81
2019-03-18T03:30:45.362Z,3.87
2019-03-18T03:31:18.384Z,3.87
2019-03-18T03:31:51.540Z,3.81
2019-03-18T03:32:24.411Z,3.87
2019-03-18T03:32:57.662Z,3.87
2019-03-18T03:33:30.651Z,3.94
2019-03-18T03:34:03.674Z,3.94
2019-03-18T03:34:36.821Z,3.94
2019-03-18T03:35:10.191Z,3.94
2019-03-18T03:35:43.036Z,3.94
2019-03-18T03:36:16.221Z,4.00
2019-03-18T03:36:49.137Z,4.00
2019-03-18T03:37:23.905Z,4.00
2019-03-18T03:37:57.358Z,4.00
2019-03-18T03:38:30.283Z,4.06
2019-03-18T03:39:06.095Z,4.00
2019-03-18T03:39:39.078Z,4.00
2019-03-18T03:40:12.359Z,4.06
2019-03-18T03:40:46.267Z,4.06
2019-03-18T03:41:19.363Z,4.12
2019-03-18T03:41:52.507Z,4.12
2019-03-18T03:42:25.548Z,4.12
2019-03-18T03:42:58.753Z,4.19
2019-03-18T03:43:31.770Z,4.19
2019-03-18T03:44:04.839Z,4.19
2019-03-18T03:44:38.064Z,4.19
2019-03-18T03:45:11.238Z,4.19
2019-03-18T03:45:44.335Z,4.25
2019-03-18T03:46:17.124Z,4.19
2019-03-18T03:46:50.112Z,4.19
2019-03-18T03:47:23.308Z,4.19
2019-03-18T03:47:56.148Z,4.19
2019-03-18T03:48:29.206Z,4.19
2019-03-18T03:49:02.232Z,4.12
2019-03-18T03:49:35.275Z,4.12
2019-03-18T03:50:08.521Z,4.06
2019-03-18T03:50:41.591Z,4.06
2019-03-18T03:51:14.548Z,4.06
2019-03-18T03:51:47.535Z,4.00
2019-03-18T03:52:20.538Z,3.94
2019-03-18T03:52:53.472Z,3.87
2019-03-18T03:53:30.990Z,3.87
2019-03-18T03:54:02.670Z,3.81
2019-03-18T03:54:35.776Z,3.81
2019-03-18T03:55:08.902Z,3.81
2019-03-18T03:55:42.830Z,3.75
2019-03-18T03:56:15.831Z,3.69
2019-03-18T03:56:50.740Z,3.62
2019-03-18T03:57:23.755Z,3.62
2019-03-18T03:57:56.753Z,3.62
2019-03-18T03:58:29.758Z,3.56
2019-03-18T03:59:02.810Z,3.56
2019-03-18T03:59:36.389Z,3.56
2019-03-18T04:00:09.611Z,3.62
2019-03-18T04:00:42.512Z,3.62
2019-03-18T04:01:15.579Z,3.62
2019-03-18T04:01:48.583Z,3.62
2019-03-18T04:02:21.744Z,3.62
2019-03-18T04:02:54.744Z,3.62
2019-03-18T04:03:38.448Z,3.56
2019-03-18T04:04:03.682Z,3.56
2019-03-18T04:04:36.771Z,3.62
2019-03-18T04:05:10.187Z,3.62
2019-03-18T04:05:43.417Z,3.62
2019-03-18T04:06:16.515Z,3.62
2019-03-18T04:06:49.616Z,3.62
2019-03-18T04:07:22.603Z,3.62
2019-03-18T04:07:57.842Z,3.56
2019-03-18T04:08:30.962Z,3.56
2019-03-18T04:09:05.937Z,3.56
2019-03-18T04:09:39.023Z,3.56
2019-03-18T04:10:12.308Z,3.62
2019-03-18T04:10:45.355Z,3.62
2019-03-18T04:11:18.281Z,3.56
2019-03-18T04:11:51.237Z,3.56
2019-03-18T04:12:25.819Z,3.56
2019-03-18T04:12:58.990Z,3.62
2019-03-18T04:13:32.078Z,3.62
2019-03-18T04:14:06.758Z,3.62
2019-03-18T04:14:39.716Z,3.62
2019-03-18T04:15:12.846Z,3.56
2019-03-18T04:15:45.898Z,3.56
2019-03-18T04:16:18.981Z,3.56
2019-03-18T04:17:01.605Z,3.62
2019-03-18T04:17:26.991Z,3.62
2019-03-18T04:17:59.951Z,3.69
2019-03-18T04:18:32.916Z,3.69
2019-03-18T04:19:05.905Z,3.69
2019-03-18T04:19:38.756Z,3.69
2019-03-18T04:20:12.390Z,3.69
2019-03-18T04:20:45.430Z,3.69
2019-03-18T04:21:18.409Z,3.75
2019-03-18T04:21:51.462Z,3.75
2019-03-18T04:22:24.564Z,3.75
2019-03-18T04:22:57.629Z,3.81
2019-03-18T04:23:30.536Z,3.81
2019-03-18T04:24:03.725Z,3.81
2019-03-18T04:24:36.788Z,3.87
2019-03-18T04:25:09.842Z,3.94
2019-03-18T04:25:42.913Z,3.94
2019-03-18T04:26:15.747Z,3.94
2019-03-18T04:26:50.171Z,3.87
2019-03-18T04:27:24.782Z,3.87
2019-03-18T04:27:58.096Z,3.87
2019-03-18T04:28:32.189Z,3.87
2019-03-18T04:29:05.119Z,3.81
2019-03-18T04:29:37.919Z,3.81
2019-03-18T04:30:11.242Z,3.81
2019-03-18T04:30:44.220Z,3.75
2019-03-18T04:31:18.225Z,3.75
2019-03-18T04:31:51.114Z,3.69
2019-03-18T04:32:23.955Z,3.69
2019-03-18T04:32:56.844Z,3.69
2019-03-18T04:33:30.774Z,3.69
2019-03-18T04:34:03.891Z,3.75
2019-03-18T04:34:36.832Z,3.75
2019-03-18T04:35:09.708Z,3.81
2019-03-18T04:35:42.690Z,3.81
2019-03-18T04:36:15.723Z,3.81
2019-03-18T04:36:48.729Z,3.87
2019-03-18T04:37:21.816Z,3.87
2019-03-18T04:37:54.652Z,3.87
2019-03-18T04:38:27.519Z,3.94
2019-03-18T04:39:00.440Z,3.94
2019-03-18T04:39:33.333Z,3.94
2019-03-18T04:40:06.488Z,3.94
2019-03-18T04:40:39.505Z,3.94
2019-03-18T04:41:12.504Z,3.87
2019-03-18T04:41:45.522Z,3.87
2019-03-18T04:42:18.541Z,3.87
2019-03-18T04:42:52.351Z,3.94
2019-03-18T04:43:25.148Z,3.94
2019-03-18T04:43:57.968Z,4.00
2019-03-18T04:44:30.869Z,4.00
2019-03-18T04:45:04.168Z,4.00
2019-03-18T04:45:37.744Z,3.94
2019-03-18T04:46:10.752Z,3.94
2019-03-18T04:46:43.544Z,3.87
2019-03-18T04:47:16.485Z,3.87
2019-03-18T04:47:49.306Z,3.87
2019-03-18T04:48:22.200Z,3.87
2019-03-18T04:48:55.264Z,3.87
2019-03-18T04:49:28.337Z,3.87
2019-03-18T04:50:01.274Z,3.87
2019-03-18T04:50:34.406Z,3.87
2019-03-18T04:51:07.484Z,3.81
2019-03-18T04:51:40.648Z,3.81
2019-03-18T04:52:13.580Z,3.81
2019-03-18T04:52:46.590Z,3.81
2019-03-18T04:53:19.586Z,3.81
2019-03-18T04:53:52.434Z,3.81
2019-03-18T04:54:25.432Z,3.81
2019-03-18T04:54:58.578Z,3.81
2019-03-18T04:55:31.624Z,3.81
2019-03-18T04:56:04.722Z,3.81
2019-03-18T04:56:37.856Z,3.81
2019-03-18T04:57:10.780Z,3.81
2019-03-18T04:57:43.762Z,3.81
2019-03-18T04:58:16.656Z,3.81
2019-03-18T04:58:49.615Z,3.87
2019-03-18T04:59:22.510Z,3.87
2019-03-18T04:59:56.538Z,3.94
2019-03-18T05:00:29.424Z,3.94
2019-03-18T05:01:02.371Z,3.87
2019-03-18T05:01:35.282Z,3.87
2019-03-18T05:02:09.026Z,3.87
2019-03-18T05:02:42.124Z,3.87
2019-03-18T05:03:15.166Z,3.87
2019-03-18T05:03:48.268Z,3.81
2019-03-18T05:04:21.600Z,3.81
2019-03-18T05:04:54.506Z,3.81
2019-03-18T05:05:27.446Z,3.81
2019-03-18T05:06:00.360Z,3.81
2019-03-18T05:06:33.299Z,3.87
2019-03-18T05:07:06.208Z,3.87
2019-03-18T05:07:39.256Z,3.94
2019-03-18T05:08:12.140Z,3.94
2019-03-18T05:08:44.965Z,4.00
2019-03-18T05:09:17.785Z,4.00
2019-03-18T05:09:50.691Z,4.00
2019-03-18T05:10:23.735Z,4.06
2019-03-18T05:10:56.724Z,4.06
2019-03-18T05:11:29.737Z,4.12
2019-03-18T05:12:02.786Z,4.12
2019-03-18T05:12:35.674Z,4.12
2019-03-18T05:13:08.618Z,4.12
2019-03-18T05:13:41.774Z,4.12
2019-03-18T05:14:14.714Z,4.06
2019-03-18T05:14:47.672Z,4.06
2019-03-18T05:15:20.590Z,4.06
2019-03-18T05:15:53.558Z,4.06
2019-03-18T05:16:26.560Z,4.06
2019-03-18T05:16:59.674Z,4.12
2019-03-18T05:17:32.914Z,4.12
2019-03-18T05:18:05.995Z,4.12
2019-03-18T05:18:38.990Z,4.12
2019-03-18T05:19:12.080Z,4.19
2019-03-18T05:19:45.028Z,4.19
2019-03-18T05:20:17.947Z,4.19
2019-03-18T05:20:50.900Z,4.25
2019-03-18T05:21:23.906Z,4.31
2019-03-18T05:21:56.770Z,4.37
2019-03-18T05:22:29.806Z,4.37
2019-03-18T05:23:02.939Z,4.44
2019-03-18T05:23:35.720Z,4.56
2019-03-18T05:24:08.764Z,4.56
2019-03-18T05:24:43.248Z,4.62
2019-03-18T05:25:16.367Z,4.62
2019-03-18T05:25:50.090Z,4.69
2019-03-18T05:26:22.905Z,4.69
2019-03-18T05:26:55.844Z,4.75
2019-03-18T05:27:28.862Z,4.75
2019-03-18T05:28:01.851Z,4.75
2019-03-18T05:28:34.881Z,4.81
2019-03-18T05:29:07.819Z,4.81
2019-03-18T05:29:40.753Z,4.81
2019-03-18T05:30:13.775Z,4.81
2019-03-18T05:30:46.840Z,4.81
2019-03-18T05:31:19.737Z,4.81
2019-03-18T05:31:52.784Z,4.81
2019-03-18T05:32:25.672Z,4.81
2019-03-18T05:32:58.704Z,4.75
2019-03-18T05:33:31.778Z,4.75
2019-03-18T05:34:05.784Z,4.69
2019-03-18T05:34:38.620Z,4.62
2019-03-18T05:35:11.738Z,4.62
2019-03-18T05:35:44.746Z,4.62
2019-03-18T05:36:17.684Z,4.56
2019-03-18T05:36:50.475Z,4.56
2019-03-18T05:37:23.506Z,4.50
2019-03-18T05:37:56.416Z,4.50
2019-03-18T05:38:29.350Z,4.44
2019-03-18T05:39:02.484Z,4.37
2019-03-18T05:39:36.629Z,4.37
2019-03-18T05:40:09.804Z,4.31
2019-03-18T05:40:42.818Z,4.25
2019-03-18T05:41:15.638Z,4.25
2019-03-18T05:41:48.550Z,4.25
2019-03-18T05:42:21.486Z,4.19
2019-03-18T05:42:55.306Z,4.19
2019-03-18T05:43:28.354Z,4.19
2019-03-18T05:44:01.392Z,4.12
2019-03-18T05:44:34.310Z,4.12
2019-03-18T05:45:07.397Z,4.12
2019-03-18T05:45:41.236Z,4.06
2019-03-18T05:46:14.136Z,4.12
2019-03-18T05:46:47.090Z,4.06
2019-03-18T05:47:19.943Z,4.06
2019-03-18T05:47:52.760Z,4.06
2019-03-18T05:48:25.802Z,4.06
2019-03-18T05:48:58.716Z,4.00
2019-03-18T05:49:31.980Z,3.94
2019-03-18T05:50:05.818Z,3.94
2019-03-18T05:50:38.720Z,3.87
2019-03-18T05:51:11.616Z,3.87
2019-03-18T05:51:44.544Z,3.87
2019-03-18T05:52:17.555Z,3.81
2019-03-18T05:52:50.388Z,3.81
2019-03-18T05:53:23.298Z,3.87
2019-03-18T05:53:56.246Z,3.87
2019-03-18T05:54:29.063Z,3.94
2019-03-18T05:55:02.138Z,3.94
2019-03-18T05:55:36.796Z,4.00
2019-03-18T05:56:09.845Z,4.06
2019-03-18T05:56:42.834Z,4.12
2019-03-18T05:57:16.863Z,4.19
2019-03-18T05:57:49.914Z,4.31
2019-03-18T05:58:22.842Z,4.31
2019-03-18T05:58:55.733Z,4.31
2019-03-18T05:59:28.567Z,4.25
2019-03-18T06:00:04.138Z,4.25
2019-03-18T06:00:37.176Z,4.25
2019-03-18T06:01:10.118Z,4.25
2019-03-18T06:01:43.128Z,4.25
2019-03-18T06:02:16.057Z,4.25
2019-03-18T06:02:49.232Z,4.25
2019-03-18T06:03:23.754Z,4.25
2019-03-18T06:03:56.824Z,4.31
2019-03-18T06:04:29.738Z,4.31
2019-03-18T06:05:03.400Z,4.31
2019-03-18T06:05:36.253Z,4.37
2019-03-18T06:06:09.226Z,4.44
2019-03-18T06:06:42.322Z,4.50
2019-03-18T06:07:15.490Z,4.50
2019-03-18T06:07:48.546Z,4.50
2019-03-18T06:08:21.742Z,4.50
2019-03-18T06:08:54.960Z,4.50
2019-03-18T06:09:27.876Z,4.44
2019-03-18T06:10:00.819Z,4.44
2019-03-18T06:10:33.661Z,4.44
2019-03-18T06:11:06.496Z,4.44
2019-03-18T06:11:39.499Z,4.44
2019-03-18T06:12:14.054Z,4.44
2019-03-18T06:12:47.077Z,4.50
2019-03-18T06:13:20.110Z,4.50
2019-03-18T06:13:53.105Z,4.50
2019-03-18T06:14:26.296Z,4.50
2019-03-18T06:14:59.258Z,4.44
2019-03-18T06:15:32.433Z,4.44
2019-03-18T06:16:05.552Z,4.44
2019-03-18T06:16:38.782Z,4.44
2019-03-18T06:17:11.944Z,4.44
2019-03-18T06:17:52.324Z,4.37
2019-03-18T06:18:20.073Z,4.37
2019-03-18T06:18:53.156Z,4.44
2019-03-18T06:19:27.111Z,4.44
2019-03-18T06:20:00.306Z,4.44
2019-03-18T06:20:34.458Z,4.50
2019-03-18T06:21:07.358Z,4.56
2019-03-18T06:21:40.271Z,4.62
2019-03-18T06:22:13.294Z,4.62
2019-03-18T06:22:46.212Z,4.69
2019-03-18T06:23:19.151Z,4.75
2019-03-18T06:23:52.016Z,4.75
2019-03-18T06:24:25.024Z,4.81
2019-03-18T06:24:58.056Z,4.87
2019-03-18T06:25:31.037Z,4.87
2019-03-18T06:26:04.164Z,4.94
2019-03-18T06:26:37.173Z,4.94
2019-03-18T06:27:10.054Z,4.94
2019-03-18T06:27:43.016Z,4.94
2019-03-18T06:28:15.796Z,5.00
2019-03-18T06:28:48.734Z,4.94
2019-03-18T06:29:21.738Z,4.94
2019-03-18T06:29:55.724Z,4.94
2019-03-18T06:30:29.018Z,4.87
2019-03-18T06:31:02.078Z,4.87
2019-03-18T06:31:34.968Z,4.94
2019-03-18T06:32:08.028Z,4.94
2019-03-18T06:32:41.018Z,4.94
2019-03-18T06:33:13.964Z,4.94
2019-03-18T06:33:48.033Z,5.00
2019-03-18T06:34:21.056Z,5.00
2019-03-18T06:34:55.059Z,5.00
2019-03-18T06:35:28.088Z,5.00
2019-03-18T06:36:01.120Z,5.00
2019-03-18T06:36:34.045Z,5.00
2019-03-18T06:37:06.945Z,5.00
2019-03-18T06:37:40.417Z,5.06
2019-03-18T06:38:14.407Z,5.06
2019-03-18T06:38:47.344Z,5.06
2019-03-18T06:39:22.037Z,5.06
2019-03-18T06:39:54.948Z,5.06
2019-03-18T06:40:27.995Z,5.06
2019-03-18T06:41:00.997Z,5.06
2019-03-18T06:41:34.012Z,5.06
2019-03-18T06:42:08.055Z,5.06
2019-03-18T06:42:40.975Z,5.06
2019-03-18T06:43:13.886Z,5.06
2019-03-18T06:43:46.839Z,5.06
2019-03-18T06:44:19.748Z,5.06
2019-03-18T06:44:54.240Z,5.06
2019-03-18T06:45:27.173Z,5.06
2019-03-18T06:46:00.183Z,5.06
2019-03-18T06:46:33.117Z,5.06
2019-03-18T06:47:05.918Z,5.06
2019-03-18T06:47:38.944Z,5.06
2019-03-18T06:48:11.862Z,5.12
2019-03-18T06:48:44.929Z,5.12
2019-03-18T06:49:17.775Z,5.12
2019-03-18T06:49:50.590Z,5.19
2019-03-18T06:50:23.624Z,5.19
2019-03-18T06:50:56.527Z,5.19
2019-03-18T06:51:32.564Z,5.19
2019-03-18T06:52:08.563Z,5.19
2019-03-18T06:52:42.763Z,5.19
2019-03-18T06:53:18.555Z,5.12
2019-03-18T06:53:52.528Z,5.12
2019-03-18T06:54:25.678Z,5.12
2019-03-18T06:54:58.466Z,5.12
2019-03-18T06:55:31.360Z,5.12
2019-03-18T06:56:04.168Z,5.12
2019-03-18T06:56:37.207Z,5.12
2019-03-18T06:57:10.158Z,5.12
2019-03-18T06:57:43.179Z,5.12
2019-03-18T06:58:16.147Z,5.19
2019-03-18T06:58:48.935Z,5.19
2019-03-18T06:59:21.854Z,5.19
2019-03-18T06:59:54.764Z,5.19
2019-03-18T07:00:27.678Z,5.19
2019-03-18T07:01:00.512Z,5.25
2019-03-18T07:01:33.456Z,5.25
2019-03-18T07:02:06.494Z,5.25
2019-03-18T07:02:41.125Z,5.31
2019-03-18T07:03:14.046Z,5.31
2019-03-18T07:03:46.896Z,5.37
2019-03-18T07:04:19.822Z,5.37
2019-03-18T07:04:52.749Z,5.37
2019-03-18T07:05:25.654Z,5.37
2019-03-18T07:05:58.471Z,5.37
2019-03-18T07:06:31.534Z,5.37
2019-03-18T07:07:04.527Z,5.37
2019-03-18T07:07:37.439Z,5.44
2019-03-18T07:08:10.338Z,5.44
2019-03-18T07:08:43.379Z,5.44
2019-03-18T07:09:16.324Z,5.44
2019-03-18T07:09:49.286Z,5.50
2019-03-18T07:10:22.164Z,5.50
2019-03-18T07:10:56.124Z,5.50
2019-03-18T07:11:29.132Z,5.50
2019-03-18T07:12:02.268Z,5.50
2019-03-18T07:12:35.339Z,5.50
2019-03-18T07:13:08.294Z,5.50
2019-03-18T07:13:41.191Z,5.50
2019-03-18T07:14:15.709Z,5.50
2019-03-18T07:14:48.532Z,5.50
2019-03-18T07:15:21.498Z,5.50
2019-03-18T07:15:54.409Z,5.50
2019-03-18T07:16:27.475Z,5.50
2019-03-18T07:17:00.375Z,5.56
2019-03-18T07:17:33.556Z,5.56
2019-03-18T07:18:17.723Z,5.56
2019-03-18T07:18:41.419Z,5.56
2019-03-18T07:19:14.338Z,5.62
2019-03-18T07:19:47.302Z,5.62
2019-03-18T07:20:20.307Z,5.62
2019-03-18T07:20:53.587Z,5.62
2019-03-18T07:21:26.959Z,5.62
2019-03-18T07:22:00.032Z,5.62